sensor_id;sensor_type;location;lat;lon;timestamp;temperature;humidity
29817;DHT22;16805;52.956;5.906;2023-11-19T00:00:40;11.00;99.90
29817;DHT22;16805;52.956;5.906;2023-11-19T00:03:06;11.00;99.90
29817;DHT22;16805;52.956;5.906;2023-11-19T00:05:32;11.00;99.90
29817;DHT22;16805;52.956;5.906;2023-11-19T00:07:57;11.00;99.90
29817;DHT22;16805;52.956;5.906;2023-11-19T00:10:23;11.00;99.90
29817;DHT22;16805;52.956;5.906;2023-11-19T00:12:49;11.00;99.90
29817;DHT22;16805;52.956;5.906;2023-11-19T00:15:16;11.00;99.90
29817;DHT22;16805;52.956;5.906;2023-11-19T00:17:44;11.00;99.90
29817;DHT22;16805;52.956;5.906;2023-11-19T00:20:18;11.00;99.90
29817;DHT22;16805;52.956;5.906;2023-11-19T00:22:44;10.90;99.90
29817;DHT22;16805;52.956;5.906;2023-11-19T00:25:11;10.90;99.90
29817;DHT22;16805;52.956;5.906;2023-11-19T00:27:37;10.90;99.90
29817;DHT22;16805;52.956;5.906;2023-11-19T00:30:04;10.90;99.90
29817;DHT22;16805;52.956;5.906;2023-11-19T00:32:31;10.90;99.90
29817;DHT22;16805;52.956;5.906;2023-11-19T00:34:57;10.90;99.90
29817;DHT22;16805;52.956;5.906;2023-11-19T00:37:22;10.90;99.90
29817;DHT22;16805;52.956;5.906;2023-11-19T00:39:48;10.90;99.90
29817;DHT22;16805;52.956;5.906;2023-11-19T00:42:14;10.90;99.90
29817;DHT22;16805;52.956;5.906;2023-11-19T00:44:39;10.90;99.90
29817;DHT22;16805;52.956;5.906;2023-11-19T00:47:06;10.90;99.90
29817;DHT22;16805;52.956;5.906;2023-11-19T00:49:32;10.90;99.90
29817;DHT22;16805;52.956;5.906;2023-11-19T00:51:58;10.90;99.90
29817;DHT22;16805;52.956;5.906;2023-11-19T00:54:24;10.90;99.90
29817;DHT22;16805;52.956;5.906;2023-11-19T00:56:52;10.90;99.90
29817;DHT22;16805;52.956;5.906;2023-11-19T00:59:18;10.90;99.90
29817;DHT22;16805;52.956;5.906;2023-11-19T01:01:43;10.90;99.90
29817;DHT22;16805;52.956;5.906;2023-11-19T01:04:09;10.90;99.90
29817;DHT22;16805;52.956;5.906;2023-11-19T01:06:35;10.80;99.90
29817;DHT22;16805;52.956;5.906;2023-11-19T01:09:00;10.80;99.90
29817;DHT22;16805;52.956;5.906;2023-11-19T01:11:26;10.80;99.90
29817;DHT22;16805;52.956;5.906;2023-11-19T01:13:52;10.80;99.90
29817;DHT22;16805;52.956;5.906;2023-11-19T01:16:18;10.80;99.90
29817;DHT22;16805;52.956;5.906;2023-11-19T01:18:47;10.80;99.90
29817;DHT22;16805;52.956;5.906;2023-11-19T01:21:14;10.80;99.90
29817;DHT22;16805;52.956;5.906;2023-11-19T01:23:40;10.80;99.90
29817;DHT22;16805;52.956;5.906;2023-11-19T01:26:08;10.80;99.90
29817;DHT22;16805;52.956;5.906;2023-11-19T01:28:35;10.80;99.90
29817;DHT22;16805;52.956;5.906;2023-11-19T01:31:01;10.80;99.90
29817;DHT22;16805;52.956;5.906;2023-11-19T01:33:27;10.80;99.90
29817;DHT22;16805;52.956;5.906;2023-11-19T01:35:53;10.80;99.90
29817;DHT22;16805;52.956;5.906;2023-11-19T01:38:19;10.80;99.90
29817;DHT22;16805;52.956;5.906;2023-11-19T01:40:44;10.80;99.90
29817;DHT22;16805;52.956;5.906;2023-11-19T01:43:10;10.80;99.90
29817;DHT22;16805;52.956;5.906;2023-11-19T01:45:37;10.80;99.90
29817;DHT22;16805;52.956;5.906;2023-11-19T01:48:04;10.80;99.90
29817;DHT22;16805;52.956;5.906;2023-11-19T01:50:30;10.80;99.90
29817;DHT22;16805;52.956;5.906;2023-11-19T01:52:57;10.70;99.90
29817;DHT22;16805;52.956;5.906;2023-11-19T01:55:24;10.70;99.90
29817;DHT22;16805;52.956;5.906;2023-11-19T01:57:51;10.60;99.90
29817;DHT22;16805;52.956;5.906;2023-11-19T02:00:18;10.60;99.90
29817;DHT22;16805;52.956;5.906;2023-11-19T02:02:46;10.60;99.90
29817;DHT22;16805;52.956;5.906;2023-11-19T02:05:13;10.60;99.90
29817;DHT22;16805;52.956;5.906;2023-11-19T02:07:39;10.50;99.90
29817;DHT22;16805;52.956;5.906;2023-11-19T02:10:06;10.50;99.90
29817;DHT22;16805;52.956;5.906;2023-11-19T02:12:33;10.50;99.90
29817;DHT22;16805;52.956;5.906;2023-11-19T02:14:59;10.50;99.90
29817;DHT22;16805;52.956;5.906;2023-11-19T02:17:30;10.50;99.90
29817;DHT22;16805;52.956;5.906;2023-11-19T02:19:59;10.50;99.90
29817;DHT22;16805;52.956;5.906;2023-11-19T02:22:25;10.50;99.90
29817;DHT22;16805;52.956;5.906;2023-11-19T02:24:59;10.40;99.90
29817;DHT22;16805;52.956;5.906;2023-11-19T02:27:58;10.40;99.90
29817;DHT22;16805;52.956;5.906;2023-11-19T02:30:24;10.40;99.90
29817;DHT22;16805;52.956;5.906;2023-11-19T02:32:55;10.40;99.90
29817;DHT22;16805;52.956;5.906;2023-11-19T02:35:23;10.40;99.90
29817;DHT22;16805;52.956;5.906;2023-11-19T02:37:49;10.40;99.90
29817;DHT22;16805;52.956;5.906;2023-11-19T02:40:14;10.40;99.90
29817;DHT22;16805;52.956;5.906;2023-11-19T02:42:40;10.40;99.90
29817;DHT22;16805;52.956;5.906;2023-11-19T02:45:06;10.40;99.90
29817;DHT22;16805;52.956;5.906;2023-11-19T02:47:33;10.40;99.90
29817;DHT22;16805;52.956;5.906;2023-11-19T02:49:59;10.40;99.90
29817;DHT22;16805;52.956;5.906;2023-11-19T02:52:25;10.40;99.90
29817;DHT22;16805;52.956;5.906;2023-11-19T02:54:51;10.40;99.90
29817;DHT22;16805;52.956;5.906;2023-11-19T02:57:16;10.30;99.90
29817;DHT22;16805;52.956;5.906;2023-11-19T02:59:44;10.30;99.90
29817;DHT22;16805;52.956;5.906;2023-11-19T03:02:10;10.40;99.90
29817;DHT22;16805;52.956;5.906;2023-11-19T03:04:37;10.40;99.90
29817;DHT22;16805;52.956;5.906;2023-11-19T03:07:06;10.40;99.90
29817;DHT22;16805;52.956;5.906;2023-11-19T03:09:35;10.40;99.90
29817;DHT22;16805;52.956;5.906;2023-11-19T03:12:01;10.40;99.90
29817;DHT22;16805;52.956;5.906;2023-11-19T03:14:27;10.40;99.90
29817;DHT22;16805;52.956;5.906;2023-11-19T03:16:53;10.40;99.90
29817;DHT22;16805;52.956;5.906;2023-11-19T03:19:18;10.40;99.90
29817;DHT22;16805;52.956;5.906;2023-11-19T03:21:44;10.40;99.90
29817;DHT22;16805;52.956;5.906;2023-11-19T03:24:10;10.40;99.90
29817;DHT22;16805;52.956;5.906;2023-11-19T03:26:38;10.40;99.90
29817;DHT22;16805;52.956;5.906;2023-11-19T03:29:03;10.40;99.90
29817;DHT22;16805;52.956;5.906;2023-11-19T03:31:29;10.40;99.90
29817;DHT22;16805;52.956;5.906;2023-11-19T03:33:55;10.40;99.90
29817;DHT22;16805;52.956;5.906;2023-11-19T03:36:20;10.40;99.90
29817;DHT22;16805;52.956;5.906;2023-11-19T03:38:46;10.40;99.90
29817;DHT22;16805;52.956;5.906;2023-11-19T03:41:15;10.40;99.90
29817;DHT22;16805;52.956;5.906;2023-11-19T03:43:41;10.40;99.90
29817;DHT22;16805;52.956;5.906;2023-11-19T03:46:20;10.40;99.90
29817;DHT22;16805;52.956;5.906;2023-11-19T03:48:47;10.40;99.90
29817;DHT22;16805;52.956;5.906;2023-11-19T03:51:13;10.50;99.90
29817;DHT22;16805;52.956;5.906;2023-11-19T03:53:43;10.50;99.90
29817;DHT22;16805;52.956;5.906;2023-11-19T03:56:09;10.50;99.90
29817;DHT22;16805;52.956;5.906;2023-11-19T03:58:35;10.50;99.90
29817;DHT22;16805;52.956;5.906;2023-11-19T04:01:01;10.50;99.90
29817;DHT22;16805;52.956;5.906;2023-11-19T04:03:28;10.50;99.90
29817;DHT22;16805;52.956;5.906;2023-11-19T04:05:53;10.50;99.90
29817;DHT22;16805;52.956;5.906;2023-11-19T04:08:19;10.50;99.90
29817;DHT22;16805;52.956;5.906;2023-11-19T04:10:45;10.50;99.90
29817;DHT22;16805;52.956;5.906;2023-11-19T04:13:10;10.50;99.90
29817;DHT22;16805;52.956;5.906;2023-11-19T04:15:36;10.50;99.90
29817;DHT22;16805;52.956;5.906;2023-11-19T04:18:02;10.50;99.90
29817;DHT22;16805;52.956;5.906;2023-11-19T04:20:27;10.50;99.90
29817;DHT22;16805;52.956;5.906;2023-11-19T04:22:53;10.50;99.90
29817;DHT22;16805;52.956;5.906;2023-11-19T04:25:19;10.50;99.90
29817;DHT22;16805;52.956;5.906;2023-11-19T04:27:44;10.50;99.90
29817;DHT22;16805;52.956;5.906;2023-11-19T04:30:11;10.50;99.90
29817;DHT22;16805;52.956;5.906;2023-11-19T04:32:37;10.50;99.90
29817;DHT22;16805;52.956;5.906;2023-11-19T04:35:03;10.50;99.90
29817;DHT22;16805;52.956;5.906;2023-11-19T04:37:28;10.50;99.90
29817;DHT22;16805;52.956;5.906;2023-11-19T04:39:54;10.50;99.90
29817;DHT22;16805;52.956;5.906;2023-11-19T04:42:22;10.50;99.90
29817;DHT22;16805;52.956;5.906;2023-11-19T04:44:47;10.50;99.90
29817;DHT22;16805;52.956;5.906;2023-11-19T04:47:13;10.50;99.90
29817;DHT22;16805;52.956;5.906;2023-11-19T04:49:42;10.50;99.90
29817;DHT22;16805;52.956;5.906;2023-11-19T04:52:08;10.50;99.90
29817;DHT22;16805;52.956;5.906;2023-11-19T04:54:34;10.50;99.90
29817;DHT22;16805;52.956;5.906;2023-11-19T04:56:59;10.50;99.90
29817;DHT22;16805;52.956;5.906;2023-11-19T04:59:25;10.50;99.90
29817;DHT22;16805;52.956;5.906;2023-11-19T05:01:50;10.50;99.90
29817;DHT22;16805;52.956;5.906;2023-11-19T05:04:17;10.50;99.90
29817;DHT22;16805;52.956;5.906;2023-11-19T05:06:44;10.50;99.90
29817;DHT22;16805;52.956;5.906;2023-11-19T05:09:09;10.50;99.90
29817;DHT22;16805;52.956;5.906;2023-11-19T05:11:37;10.50;99.90
29817;DHT22;16805;52.956;5.906;2023-11-19T05:14:04;10.50;99.90
29817;DHT22;16805;52.956;5.906;2023-11-19T05:16:30;10.50;99.90
29817;DHT22;16805;52.956;5.906;2023-11-19T05:18:56;10.50;99.90
29817;DHT22;16805;52.956;5.906;2023-11-19T05:21:22;10.50;99.90
29817;DHT22;16805;52.956;5.906;2023-11-19T05:23:47;10.50;99.90
29817;DHT22;16805;52.956;5.906;2023-11-19T05:26:20;10.50;99.90
29817;DHT22;16805;52.956;5.906;2023-11-19T05:28:46;10.50;99.90
29817;DHT22;16805;52.956;5.906;2023-11-19T05:31:12;10.50;99.90
29817;DHT22;16805;52.956;5.906;2023-11-19T05:33:37;10.50;99.90
29817;DHT22;16805;52.956;5.906;2023-11-19T05:36:04;10.50;99.90
29817;DHT22;16805;52.956;5.906;2023-11-19T05:38:30;10.50;99.90
29817;DHT22;16805;52.956;5.906;2023-11-19T05:40:55;10.50;99.90
29817;DHT22;16805;52.956;5.906;2023-11-19T05:43:22;10.50;99.90
29817;DHT22;16805;52.956;5.906;2023-11-19T05:45:48;10.50;99.90
29817;DHT22;16805;52.956;5.906;2023-11-19T05:48:13;10.50;99.90
29817;DHT22;16805;52.956;5.906;2023-11-19T05:50:39;10.50;99.90
29817;DHT22;16805;52.956;5.906;2023-11-19T05:53:05;10.50;99.90
29817;DHT22;16805;52.956;5.906;2023-11-19T05:55:34;10.50;99.90
29817;DHT22;16805;52.956;5.906;2023-11-19T05:58:00;10.50;99.90
29817;DHT22;16805;52.956;5.906;2023-11-19T06:00:25;10.50;99.90
29817;DHT22;16805;52.956;5.906;2023-11-19T06:02:52;10.50;99.90
29817;DHT22;16805;52.956;5.906;2023-11-19T06:05:18;10.50;99.90
29817;DHT22;16805;52.956;5.906;2023-11-19T06:07:44;10.50;99.90
29817;DHT22;16805;52.956;5.906;2023-11-19T06:10:10;10.50;99.90
29817;DHT22;16805;52.956;5.906;2023-11-19T06:12:36;10.50;99.90
29817;DHT22;16805;52.956;5.906;2023-11-19T06:15:07;10.50;99.90
29817;DHT22;16805;52.956;5.906;2023-11-19T06:17:34;10.50;99.90
29817;DHT22;16805;52.956;5.906;2023-11-19T06:19:59;10.50;99.90
29817;DHT22;16805;52.956;5.906;2023-11-19T06:22:25;10.50;99.90
29817;DHT22;16805;52.956;5.906;2023-11-19T06:24:51;10.50;99.90
29817;DHT22;16805;52.956;5.906;2023-11-19T06:27:16;10.50;99.90
29817;DHT22;16805;52.956;5.906;2023-11-19T06:29:42;10.50;99.90
29817;DHT22;16805;52.956;5.906;2023-11-19T06:32:07;10.50;99.90
29817;DHT22;16805;52.956;5.906;2023-11-19T06:34:34;10.50;99.90
29817;DHT22;16805;52.956;5.906;2023-11-19T06:36:59;10.50;99.90
29817;DHT22;16805;52.956;5.906;2023-11-19T06:39:25;10.40;99.90
29817;DHT22;16805;52.956;5.906;2023-11-19T06:41:51;10.40;99.90
29817;DHT22;16805;52.956;5.906;2023-11-19T06:44:17;10.40;99.90
29817;DHT22;16805;52.956;5.906;2023-11-19T06:46:43;10.40;99.90
29817;DHT22;16805;52.956;5.906;2023-11-19T06:49:08;10.40;99.90
29817;DHT22;16805;52.956;5.906;2023-11-19T06:51:34;10.40;99.90
29817;DHT22;16805;52.956;5.906;2023-11-19T06:54:00;10.40;99.90
29817;DHT22;16805;52.956;5.906;2023-11-19T06:56:26;10.40;99.90
29817;DHT22;16805;52.956;5.906;2023-11-19T06:58:52;10.40;99.90
29817;DHT22;16805;52.956;5.906;2023-11-19T07:01:18;10.40;99.90
29817;DHT22;16805;52.956;5.906;2023-11-19T07:03:45;10.40;99.90
29817;DHT22;16805;52.956;5.906;2023-11-19T07:06:11;10.50;99.90
29817;DHT22;16805;52.956;5.906;2023-11-19T07:08:38;10.50;99.90
29817;DHT22;16805;52.956;5.906;2023-11-19T07:11:04;10.40;99.90
29817;DHT22;16805;52.956;5.906;2023-11-19T07:13:30;10.50;99.90
29817;DHT22;16805;52.956;5.906;2023-11-19T07:15:58;10.50;99.90
29817;DHT22;16805;52.956;5.906;2023-11-19T07:18:24;10.50;99.90
29817;DHT22;16805;52.956;5.906;2023-11-19T07:20:50;10.40;99.90
29817;DHT22;16805;52.956;5.906;2023-11-19T07:23:15;10.50;99.90
29817;DHT22;16805;52.956;5.906;2023-11-19T07:25:44;10.40;99.90
29817;DHT22;16805;52.956;5.906;2023-11-19T07:28:15;10.40;99.90
29817;DHT22;16805;52.956;5.906;2023-11-19T07:30:42;10.40;99.90
29817;DHT22;16805;52.956;5.906;2023-11-19T07:33:07;10.40;99.90
29817;DHT22;16805;52.956;5.906;2023-11-19T07:35:33;10.40;99.90
29817;DHT22;16805;52.956;5.906;2023-11-19T07:37:59;10.40;99.90
29817;DHT22;16805;52.956;5.906;2023-11-19T07:40:26;10.40;99.90
29817;DHT22;16805;52.956;5.906;2023-11-19T07:42:51;10.40;99.90
29817;DHT22;16805;52.956;5.906;2023-11-19T07:45:17;10.40;99.90
29817;DHT22;16805;52.956;5.906;2023-11-19T07:47:43;10.50;99.90
29817;DHT22;16805;52.956;5.906;2023-11-19T07:50:10;10.50;99.90
29817;DHT22;16805;52.956;5.906;2023-11-19T07:52:37;10.50;99.90
29817;DHT22;16805;52.956;5.906;2023-11-19T07:55:03;10.50;99.90
29817;DHT22;16805;52.956;5.906;2023-11-19T07:57:28;10.50;99.90
29817;DHT22;16805;52.956;5.906;2023-11-19T07:59:56;10.50;99.90
29817;DHT22;16805;52.956;5.906;2023-11-19T08:02:22;10.50;99.90
29817;DHT22;16805;52.956;5.906;2023-11-19T08:04:51;10.50;99.90
29817;DHT22;16805;52.956;5.906;2023-11-19T08:07:18;10.60;99.90
29817;DHT22;16805;52.956;5.906;2023-11-19T08:09:44;10.60;99.90
29817;DHT22;16805;52.956;5.906;2023-11-19T08:12:10;10.60;99.90
29817;DHT22;16805;52.956;5.906;2023-11-19T08:14:36;10.60;99.90
29817;DHT22;16805;52.956;5.906;2023-11-19T08:17:03;10.60;99.90
29817;DHT22;16805;52.956;5.906;2023-11-19T08:19:28;10.70;99.90
29817;DHT22;16805;52.956;5.906;2023-11-19T08:21:54;10.70;99.90
29817;DHT22;16805;52.956;5.906;2023-11-19T08:24:19;10.70;99.90
29817;DHT22;16805;52.956;5.906;2023-11-19T08:26:45;10.70;99.90
29817;DHT22;16805;52.956;5.906;2023-11-19T08:29:11;10.70;99.90
29817;DHT22;16805;52.956;5.906;2023-11-19T08:31:36;10.70;99.90
29817;DHT22;16805;52.956;5.906;2023-11-19T08:34:02;10.70;99.90
29817;DHT22;16805;52.956;5.906;2023-11-19T08:36:28;10.70;99.90
29817;DHT22;16805;52.956;5.906;2023-11-19T08:38:53;10.70;99.90
29817;DHT22;16805;52.956;5.906;2023-11-19T08:41:19;10.70;99.90
29817;DHT22;16805;52.956;5.906;2023-11-19T08:43:45;10.70;99.90
29817;DHT22;16805;52.956;5.906;2023-11-19T08:46:11;10.80;99.90
29817;DHT22;16805;52.956;5.906;2023-11-19T08:48:37;10.80;99.90
29817;DHT22;16805;52.956;5.906;2023-11-19T08:51:03;10.80;99.90
29817;DHT22;16805;52.956;5.906;2023-11-19T08:53:30;10.90;99.90
29817;DHT22;16805;52.956;5.906;2023-11-19T08:55:55;10.90;99.90
29817;DHT22;16805;52.956;5.906;2023-11-19T08:58:21;11.00;99.90
29817;DHT22;16805;52.956;5.906;2023-11-19T09:00:47;11.10;99.90
29817;DHT22;16805;52.956;5.906;2023-11-19T09:03:13;11.10;99.90
29817;DHT22;16805;52.956;5.906;2023-11-19T09:05:38;11.20;99.90
29817;DHT22;16805;52.956;5.906;2023-11-19T09:08:04;11.30;99.90
29817;DHT22;16805;52.956;5.906;2023-11-19T09:10:30;11.40;99.90
29817;DHT22;16805;52.956;5.906;2023-11-19T09:12:55;11.50;99.90
29817;DHT22;16805;52.956;5.906;2023-11-19T09:15:21;11.50;99.90
29817;DHT22;16805;52.956;5.906;2023-11-19T09:17:47;11.50;99.90
29817;DHT22;16805;52.956;5.906;2023-11-19T09:20:12;11.60;99.90
29817;DHT22;16805;52.956;5.906;2023-11-19T09:22:41;11.60;99.90
29817;DHT22;16805;52.956;5.906;2023-11-19T09:25:07;11.60;99.90
29817;DHT22;16805;52.956;5.906;2023-11-19T09:27:32;11.60;99.90
29817;DHT22;16805;52.956;5.906;2023-11-19T09:29:58;11.60;99.90
29817;DHT22;16805;52.956;5.906;2023-11-19T09:32:24;11.60;99.90
29817;DHT22;16805;52.956;5.906;2023-11-19T09:34:50;11.60;99.90
29817;DHT22;16805;52.956;5.906;2023-11-19T09:37:15;11.60;99.90
29817;DHT22;16805;52.956;5.906;2023-11-19T09:39:41;11.60;99.90
29817;DHT22;16805;52.956;5.906;2023-11-19T09:42:09;11.70;99.90
29817;DHT22;16805;52.956;5.906;2023-11-19T09:44:35;11.60;99.90
29817;DHT22;16805;52.956;5.906;2023-11-19T09:47:03;11.60;99.90
29817;DHT22;16805;52.956;5.906;2023-11-19T09:49:30;11.60;99.90
29817;DHT22;16805;52.956;5.906;2023-11-19T09:51:58;11.60;99.90
29817;DHT22;16805;52.956;5.906;2023-11-19T09:54:23;11.60;99.90
29817;DHT22;16805;52.956;5.906;2023-11-19T09:56:49;11.60;99.90
29817;DHT22;16805;52.956;5.906;2023-11-19T09:59:15;11.60;99.90
29817;DHT22;16805;52.956;5.906;2023-11-19T10:01:42;11.60;99.90
29817;DHT22;16805;52.956;5.906;2023-11-19T10:04:08;11.60;99.90
29817;DHT22;16805;52.956;5.906;2023-11-19T10:06:35;11.60;99.90
29817;DHT22;16805;52.956;5.906;2023-11-19T10:09:01;11.60;99.90
29817;DHT22;16805;52.956;5.906;2023-11-19T10:11:26;11.70;99.90
29817;DHT22;16805;52.956;5.906;2023-11-19T10:13:53;11.70;99.90
29817;DHT22;16805;52.956;5.906;2023-11-19T10:16:19;11.70;99.90
29817;DHT22;16805;52.956;5.906;2023-11-19T10:18:46;11.70;99.90
29817;DHT22;16805;52.956;5.906;2023-11-19T10:21:15;11.70;99.90
29817;DHT22;16805;52.956;5.906;2023-11-19T10:23:53;11.70;99.90
29817;DHT22;16805;52.956;5.906;2023-11-19T10:26:20;11.80;99.90
29817;DHT22;16805;52.956;5.906;2023-11-19T10:28:46;11.80;99.90
29817;DHT22;16805;52.956;5.906;2023-11-19T10:31:16;11.80;99.90
29817;DHT22;16805;52.956;5.906;2023-11-19T10:33:42;11.80;99.90
29817;DHT22;16805;52.956;5.906;2023-11-19T10:36:10;11.80;99.90
29817;DHT22;16805;52.956;5.906;2023-11-19T10:38:38;11.80;99.90
29817;DHT22;16805;52.956;5.906;2023-11-19T10:41:04;11.80;99.90
29817;DHT22;16805;52.956;5.906;2023-11-19T10:43:31;11.80;99.90
29817;DHT22;16805;52.956;5.906;2023-11-19T10:46:13;11.80;99.90
29817;DHT22;16805;52.956;5.906;2023-11-19T10:48:40;11.80;99.90
29817;DHT22;16805;52.956;5.906;2023-11-19T10:51:07;11.80;99.90
29817;DHT22;16805;52.956;5.906;2023-11-19T10:53:37;11.90;99.90
29817;DHT22;16805;52.956;5.906;2023-11-19T10:56:05;11.90;99.90
29817;DHT22;16805;52.956;5.906;2023-11-19T10:58:33;11.90;99.90
29817;DHT22;16805;52.956;5.906;2023-11-19T11:01:02;11.90;99.90
29817;DHT22;16805;52.956;5.906;2023-11-19T11:03:33;11.90;99.90
29817;DHT22;16805;52.956;5.906;2023-11-19T11:06:00;11.90;99.90
29817;DHT22;16805;52.956;5.906;2023-11-19T11:08:30;11.90;99.90
29817;DHT22;16805;52.956;5.906;2023-11-19T11:10:56;12.00;99.90
29817;DHT22;16805;52.956;5.906;2023-11-19T11:13:24;12.00;99.90
29817;DHT22;16805;52.956;5.906;2023-11-19T11:15:50;11.90;99.90
29817;DHT22;16805;52.956;5.906;2023-11-19T11:18:17;12.00;99.90
29817;DHT22;16805;52.956;5.906;2023-11-19T11:20:46;12.00;99.90
29817;DHT22;16805;52.956;5.906;2023-11-19T11:31:55;12.00;99.90
29817;DHT22;16805;52.956;5.906;2023-11-19T11:34:44;12.00;99.90
29817;DHT22;16805;52.956;5.906;2023-11-19T11:37:25;12.00;99.90
29817;DHT22;16805;52.956;5.906;2023-11-19T11:39:51;12.00;99.90
29817;DHT22;16805;52.956;5.906;2023-11-19T11:45:03;12.10;99.90
29817;DHT22;16805;52.956;5.906;2023-11-19T11:50:08;12.10;99.90
29817;DHT22;16805;52.956;5.906;2023-11-19T11:52:44;12.10;99.90
29817;DHT22;16805;52.956;5.906;2023-11-19T11:57:56;12.10;99.90
29817;DHT22;16805;52.956;5.906;2023-11-19T12:03:02;12.10;99.90
29817;DHT22;16805;52.956;5.906;2023-11-19T12:05:29;12.10;99.90
29817;DHT22;16805;52.956;5.906;2023-11-19T12:07:56;12.20;99.90
29817;DHT22;16805;52.956;5.906;2023-11-19T12:10:24;12.20;99.90
29817;DHT22;16805;52.956;5.906;2023-11-19T12:12:52;12.20;99.90
29817;DHT22;16805;52.956;5.906;2023-11-19T12:15:18;12.20;99.90
29817;DHT22;16805;52.956;5.906;2023-11-19T12:17:49;12.20;99.90
29817;DHT22;16805;52.956;5.906;2023-11-19T12:20:16;12.30;99.90
29817;DHT22;16805;52.956;5.906;2023-11-19T12:22:43;12.30;99.90
29817;DHT22;16805;52.956;5.906;2023-11-19T12:25:10;12.30;99.90
29817;DHT22;16805;52.956;5.906;2023-11-19T12:27:39;12.30;99.90
29817;DHT22;16805;52.956;5.906;2023-11-19T12:30:06;12.30;99.90
29817;DHT22;16805;52.956;5.906;2023-11-19T12:32:41;12.30;99.90
29817;DHT22;16805;52.956;5.906;2023-11-19T12:35:08;12.30;99.90
29817;DHT22;16805;52.956;5.906;2023-11-19T12:37:47;12.30;99.90
29817;DHT22;16805;52.956;5.906;2023-11-19T12:40:22;12.30;99.90
29817;DHT22;16805;52.956;5.906;2023-11-19T12:42:49;12.30;99.90
29817;DHT22;16805;52.956;5.906;2023-11-19T12:45:15;12.30;99.90
29817;DHT22;16805;52.956;5.906;2023-11-19T12:47:42;12.20;99.90
29817;DHT22;16805;52.956;5.906;2023-11-19T12:50:09;12.20;99.90
29817;DHT22;16805;52.956;5.906;2023-11-19T12:52:36;12.20;99.90
29817;DHT22;16805;52.956;5.906;2023-11-19T12:55:26;12.20;99.90
29817;DHT22;16805;52.956;5.906;2023-11-19T12:57:52;12.20;99.90
29817;DHT22;16805;52.956;5.906;2023-11-19T13:00:20;12.30;99.90
29817;DHT22;16805;52.956;5.906;2023-11-19T13:02:53;12.20;99.90
29817;DHT22;16805;52.956;5.906;2023-11-19T13:05:26;12.20;99.90
29817;DHT22;16805;52.956;5.906;2023-11-19T13:08:02;12.20;99.90
29817;DHT22;16805;52.956;5.906;2023-11-19T13:10:30;12.20;99.90
29817;DHT22;16805;52.956;5.906;2023-11-19T13:13:07;12.20;99.90
29817;DHT22;16805;52.956;5.906;2023-11-19T13:15:34;12.20;99.90
29817;DHT22;16805;52.956;5.906;2023-11-19T13:18:00;12.20;99.90
29817;DHT22;16805;52.956;5.906;2023-11-19T13:20:26;12.20;99.90
29817;DHT22;16805;52.956;5.906;2023-11-19T13:23:03;12.20;99.90
29817;DHT22;16805;52.956;5.906;2023-11-19T13:25:30;12.20;99.90
29817;DHT22;16805;52.956;5.906;2023-11-19T13:27:56;12.20;99.90
29817;DHT22;16805;52.956;5.906;2023-11-19T13:30:23;12.20;99.90
29817;DHT22;16805;52.956;5.906;2023-11-19T13:32:50;12.20;99.90
29817;DHT22;16805;52.956;5.906;2023-11-19T13:35:16;12.20;99.90
29817;DHT22;16805;52.956;5.906;2023-11-19T13:37:43;12.20;99.90
29817;DHT22;16805;52.956;5.906;2023-11-19T13:40:10;12.20;99.90
29817;DHT22;16805;52.956;5.906;2023-11-19T13:42:39;12.20;99.90
29817;DHT22;16805;52.956;5.906;2023-11-19T13:45:11;12.20;99.90
29817;DHT22;16805;52.956;5.906;2023-11-19T13:47:42;12.20;99.90
29817;DHT22;16805;52.956;5.906;2023-11-19T13:50:09;12.20;99.90
29817;DHT22;16805;52.956;5.906;2023-11-19T13:52:37;12.10;99.90
29817;DHT22;16805;52.956;5.906;2023-11-19T13:55:07;12.10;99.90
29817;DHT22;16805;52.956;5.906;2023-11-19T13:57:37;12.10;99.90
29817;DHT22;16805;52.956;5.906;2023-11-19T14:00:04;12.10;99.90
29817;DHT22;16805;52.956;5.906;2023-11-19T14:02:41;12.10;99.90
29817;DHT22;16805;52.956;5.906;2023-11-19T14:05:07;12.10;99.90
29817;DHT22;16805;52.956;5.906;2023-11-19T14:07:33;12.00;99.90
29817;DHT22;16805;52.956;5.906;2023-11-19T14:09:59;12.00;99.90
29817;DHT22;16805;52.956;5.906;2023-11-19T14:12:24;12.00;99.90
29817;DHT22;16805;52.956;5.906;2023-11-19T14:14:57;12.00;99.90
29817;DHT22;16805;52.956;5.906;2023-11-19T14:17:22;12.00;99.90
29817;DHT22;16805;52.956;5.906;2023-11-19T14:19:50;11.90;99.90
29817;DHT22;16805;52.956;5.906;2023-11-19T14:22:15;11.90;99.90
29817;DHT22;16805;52.956;5.906;2023-11-19T14:24:41;11.90;99.90
29817;DHT22;16805;52.956;5.906;2023-11-19T14:27:08;11.90;99.90
29817;DHT22;16805;52.956;5.906;2023-11-19T14:29:34;11.90;99.90
29817;DHT22;16805;52.956;5.906;2023-11-19T14:32:01;11.90;99.90
29817;DHT22;16805;52.956;5.906;2023-11-19T14:34:27;11.90;99.90
29817;DHT22;16805;52.956;5.906;2023-11-19T14:36:52;11.90;99.90
29817;DHT22;16805;52.956;5.906;2023-11-19T14:39:19;11.90;99.90
29817;DHT22;16805;52.956;5.906;2023-11-19T14:41:44;11.90;99.90
29817;DHT22;16805;52.956;5.906;2023-11-19T14:44:10;11.90;99.90
29817;DHT22;16805;52.956;5.906;2023-11-19T14:46:36;11.80;99.90
29817;DHT22;16805;52.956;5.906;2023-11-19T14:49:02;11.80;99.90
29817;DHT22;16805;52.956;5.906;2023-11-19T14:51:29;11.80;99.90
29817;DHT22;16805;52.956;5.906;2023-11-19T14:53:55;11.80;99.90
29817;DHT22;16805;52.956;5.906;2023-11-19T14:56:20;11.70;99.90
29817;DHT22;16805;52.956;5.906;2023-11-19T14:58:46;11.70;99.90
29817;DHT22;16805;52.956;5.906;2023-11-19T15:01:12;11.70;99.90
29817;DHT22;16805;52.956;5.906;2023-11-19T15:03:38;11.70;99.90
29817;DHT22;16805;52.956;5.906;2023-11-19T15:06:04;11.70;99.90
29817;DHT22;16805;52.956;5.906;2023-11-19T15:08:29;11.60;99.90
29817;DHT22;16805;52.956;5.906;2023-11-19T15:10:55;11.60;99.90
29817;DHT22;16805;52.956;5.906;2023-11-19T15:13:23;11.60;99.90
29817;DHT22;16805;52.956;5.906;2023-11-19T15:15:49;11.50;99.90
29817;DHT22;16805;52.956;5.906;2023-11-19T15:18:14;11.60;99.90
29817;DHT22;16805;52.956;5.906;2023-11-19T15:20:40;11.50;99.90
29817;DHT22;16805;52.956;5.906;2023-11-19T15:23:06;11.50;99.90
29817;DHT22;16805;52.956;5.906;2023-11-19T15:25:34;11.40;99.90
29817;DHT22;16805;52.956;5.906;2023-11-19T15:28:02;11.40;99.90
29817;DHT22;16805;52.956;5.906;2023-11-19T15:30:27;11.40;99.90
29817;DHT22;16805;52.956;5.906;2023-11-19T15:32:53;11.40;99.90
29817;DHT22;16805;52.956;5.906;2023-11-19T15:35:20;11.40;99.90
29817;DHT22;16805;52.956;5.906;2023-11-19T15:37:45;11.40;99.90
29817;DHT22;16805;52.956;5.906;2023-11-19T15:40:11;11.30;99.90
29817;DHT22;16805;52.956;5.906;2023-11-19T15:42:38;11.30;99.90
29817;DHT22;16805;52.956;5.906;2023-11-19T15:45:05;11.30;99.90
29817;DHT22;16805;52.956;5.906;2023-11-19T15:47:33;11.30;99.90